SWR92W LSZH-EDDH
Flight info
| Callsign | SWR92W |
|---|---|
| Flight time | 1h 13m |
| Altitude | 36000 |
| Route | DEGES Z1 ETAGO DCT HAREM DCT LOHRE DCT ELNAT P605 NOLGO NOLGO3P |
| Aircraft | A21N/M-SDE2E3FGHIRWXY/LB1 |
Departure
| Time | 2026-04-26 18:08 |
|---|---|
| Airport | Zürich Airport (LSZH) |
Arrival
| Time | 2026-04-26 19:22 |
|---|---|
| Airport | Hamburg Helmut Schmidt Airport (EDDH) |
| Time | Latitude | Longitude | Altitude | Speed | Heading |
|---|---|---|---|---|---|
| 2026-04-26 17:36 | 47.45445 | 8.55570 | 1412 ft | 0 kts | 186° |
| 2026-04-26 17:57 | 47.45452 | 8.55571 | 1412 ft | 4 kts | 186° |
| 2026-04-26 17:58 | 47.45522 | 8.55550 | 1419 ft | 4 kts | 106° |
| 2026-04-26 17:59 | 47.45526 | 8.55502 | 1415 ft | 0 kts | 96° |
| 2026-04-26 18:03 | 47.45525 | 8.55522 | 1413 ft | 5 kts | 96° |
| 2026-04-26 18:03 | 47.45519 | 8.55607 | 1412 ft | 10 kts | 96° |
| 2026-04-26 18:03 | 47.45510 | 8.55719 | 1414 ft | 12 kts | 96° |
| 2026-04-26 18:03 | 47.45517 | 8.55818 | 1414 ft | 10 kts | 50° |
| 2026-04-26 18:04 | 47.45588 | 8.55847 | 1414 ft | 12 kts | 7° |
| 2026-04-26 18:04 | 47.45632 | 8.55938 | 1418 ft | 13 kts | 94° |
| 2026-04-26 18:04 | 47.45624 | 8.56084 | 1416 ft | 15 kts | 94° |
| 2026-04-26 18:05 | 47.45598 | 8.56421 | 1419 ft | 18 kts | 95° |
| 2026-04-26 18:05 | 47.45585 | 8.56614 | 1422 ft | 19 kts | 96° |
| 2026-04-26 18:05 | 47.45571 | 8.56794 | 1425 ft | 13 kts | 96° |
| 2026-04-26 18:05 | 47.45562 | 8.56934 | 1426 ft | 14 kts | 81° |
| 2026-04-26 18:06 | 47.45625 | 8.57022 | 1430 ft | 6 kts | 12° |
| 2026-04-26 18:06 | 47.45655 | 8.57011 | 1430 ft | 2 kts | 289° |
| 2026-04-26 18:06 | 47.45660 | 8.56986 | 1430 ft | 3 kts | 286° |
| 2026-04-26 18:06 | 47.45662 | 8.56972 | 1429 ft | 0 kts | 277° |
| 2026-04-26 18:07 | 47.45664 | 8.56955 | 1429 ft | 14 kts | 277° |
| 2026-04-26 18:07 | 47.45682 | 8.56681 | 1423 ft | 67 kts | 276° |
| 2026-04-26 18:08 | 47.45796 | 8.55148 | 1406 ft | 152 kts | 276° |
| 2026-04-26 18:08 | 47.45910 | 8.53508 | 1697 ft | 161 kts | 276° |
| 2026-04-26 18:08 | 47.46023 | 8.51800 | 2081 ft | 171 kts | 275° |
| 2026-04-26 18:08 | 47.46119 | 8.50046 | 2659 ft | 173 kts | 276° |
| 2026-04-26 18:09 | 47.46238 | 8.48234 | 3079 ft | 183 kts | 275° |
| 2026-04-26 18:09 | 47.45942 | 8.46373 | 3466 ft | 196 kts | 233° |
| 2026-04-26 18:09 | 47.44885 | 8.45086 | 3927 ft | 204 kts | 206° |
| 2026-04-26 18:09 | 47.43747 | 8.43734 | 4377 ft | 220 kts | 236° |
| 2026-04-26 18:10 | 47.43225 | 8.41555 | 4931 ft | 230 kts | 256° |
| 2026-04-26 18:10 | 47.42835 | 8.39229 | 5625 ft | 235 kts | 257° |
| 2026-04-26 18:10 | 47.42276 | 8.36939 | 6296 ft | 240 kts | 236° |
| 2026-04-26 18:10 | 47.41069 | 8.35275 | 7008 ft | 239 kts | 205° |
| 2026-04-26 18:11 | 47.39497 | 8.34692 | 7730 ft | 237 kts | 177° |
| 2026-04-26 18:11 | 47.37901 | 8.35276 | 8332 ft | 241 kts | 149° |
| 2026-04-26 18:11 | 47.36657 | 8.36915 | 8957 ft | 243 kts | 122° |
| 2026-04-26 18:11 | 47.36069 | 8.39238 | 9549 ft | 247 kts | 94° |
| 2026-04-26 18:12 | 47.36285 | 8.41742 | 10110 ft | 251 kts | 65° |
| 2026-04-26 18:12 | 47.37289 | 8.43833 | 10601 ft | 252 kts | 36° |
| 2026-04-26 18:12 | 47.38840 | 8.44977 | 11167 ft | 250 kts | 9° |
| 2026-04-26 18:12 | 47.40547 | 8.45520 | 11729 ft | 253 kts | 18° |
| 2026-04-26 18:13 | 47.42001 | 8.46987 | 12273 ft | 259 kts | 47° |
| 2026-04-26 18:13 | 47.43103 | 8.49081 | 12846 ft | 262 kts | 52° |
| 2026-04-26 18:13 | 47.44164 | 8.51300 | 13434 ft | 265 kts | 53° |
| 2026-04-26 18:13 | 47.44870 | 8.52781 | 13823 ft | 267 kts | 53° |
| 2026-04-26 18:14 | 47.46308 | 8.55819 | 14442 ft | 275 kts | 58° |
| 2026-04-26 18:14 | 47.46915 | 8.58571 | 14693 ft | 293 kts | 87° |
| 2026-04-26 18:14 | 47.46596 | 8.61599 | 14905 ft | 309 kts | 111° |
| 2026-04-26 18:14 | 47.45922 | 8.64700 | 15128 ft | 326 kts | 97° |
| 2026-04-26 18:15 | 47.45916 | 8.68125 | 15368 ft | 342 kts | 84° |
| 2026-04-26 18:15 | 47.46145 | 8.71706 | 15610 ft | 359 kts | 84° |
| 2026-04-26 18:15 | 47.46367 | 8.75436 | 15838 ft | 376 kts | 85° |
| 2026-04-26 18:15 | 47.46552 | 8.79342 | 16338 ft | 382 kts | 86° |
| 2026-04-26 18:16 | 47.46582 | 8.83286 | 16994 ft | 386 kts | 95° |
| 2026-04-26 18:16 | 47.45491 | 8.91116 | 18241 ft | 393 kts | 101° |
| 2026-04-26 18:16 | 47.45306 | 8.95150 | 18781 ft | 396 kts | 86° |
| 2026-04-26 18:17 | 47.45757 | 8.99156 | 19294 ft | 396 kts | 70° |
| 2026-04-26 18:17 | 47.46753 | 9.02976 | 19817 ft | 398 kts | 64° |
| 2026-04-26 18:17 | 47.47860 | 9.06754 | 20355 ft | 401 kts | 64° |
| 2026-04-26 18:17 | 47.48974 | 9.10561 | 20873 ft | 404 kts | 64° |
| 2026-04-26 18:18 | 47.50079 | 9.14422 | 21274 ft | 412 kts | 65° |
| 2026-04-26 18:18 | 47.51184 | 9.18318 | 21541 ft | 421 kts | 65° |
| 2026-04-26 18:18 | 47.52327 | 9.22371 | 21820 ft | 430 kts | 65° |
| 2026-04-26 18:18 | 47.53488 | 9.26503 | 22098 ft | 439 kts | 65° |
| 2026-04-26 18:19 | 47.54669 | 9.30708 | 22371 ft | 447 kts | 65° |
| 2026-04-26 18:19 | 47.56020 | 9.34888 | 22641 ft | 452 kts | 57° |
| 2026-04-26 18:19 | 47.57891 | 9.38638 | 22912 ft | 454 kts | 44° |
| 2026-04-26 18:19 | 47.60252 | 9.41722 | 23201 ft | 452 kts | 32° |
| 2026-04-26 18:20 | 47.62985 | 9.43981 | 23469 ft | 449 kts | 19° |
| 2026-04-26 18:20 | 47.65919 | 9.45324 | 23744 ft | 446 kts | 8° |
| 2026-04-26 18:20 | 47.68993 | 9.45800 | 23983 ft | 444 kts | 359° |
| 2026-04-26 18:20 | 47.70043 | 9.45852 | 24063 ft | 444 kts | 358° |
| 2026-04-26 18:21 | 47.75193 | 9.46066 | 24444 ft | 448 kts | 358° |
| 2026-04-26 18:21 | 47.78324 | 9.46213 | 24810 ft | 450 kts | 359° |
| 2026-04-26 18:21 | 47.81463 | 9.46298 | 25231 ft | 451 kts | 357° |
| 2026-04-26 18:21 | 47.84608 | 9.46300 | 25625 ft | 453 kts | 357° |
| 2026-04-26 18:22 | 47.87762 | 9.46293 | 26000 ft | 454 kts | 357° |
| 2026-04-26 18:22 | 47.90934 | 9.46286 | 26361 ft | 456 kts | 357° |
| 2026-04-26 18:22 | 47.94072 | 9.46273 | 26790 ft | 456 kts | 357° |
| 2026-04-26 18:22 | 47.97235 | 9.46264 | 27289 ft | 453 kts | 357° |
| 2026-04-26 18:23 | 48.00389 | 9.46258 | 27776 ft | 452 kts | 357° |
| 2026-04-26 18:23 | 48.03521 | 9.46252 | 28229 ft | 451 kts | 357° |
| 2026-04-26 18:23 | 48.06665 | 9.46243 | 28694 ft | 449 kts | 357° |
| 2026-04-26 18:23 | 48.09790 | 9.46239 | 29172 ft | 448 kts | 357° |
| 2026-04-26 18:24 | 48.12905 | 9.46229 | 29621 ft | 446 kts | 357° |
| 2026-04-26 18:24 | 48.16005 | 9.46225 | 30058 ft | 445 kts | 358° |
| 2026-04-26 18:24 | 48.19051 | 9.46228 | 30448 ft | 444 kts | 358° |
| 2026-04-26 18:24 | 48.22178 | 9.46237 | 30773 ft | 443 kts | 358° |
| 2026-04-26 18:25 | 48.25229 | 9.46235 | 31088 ft | 442 kts | 358° |
| 2026-04-26 18:25 | 48.28307 | 9.46231 | 31403 ft | 442 kts | 358° |
| 2026-04-26 18:25 | 48.31379 | 9.46235 | 31708 ft | 441 kts | 358° |
| 2026-04-26 18:25 | 48.34446 | 9.46231 | 32011 ft | 441 kts | 358° |
| 2026-04-26 18:26 | 48.37519 | 9.46231 | 32299 ft | 440 kts | 358° |
| 2026-04-26 18:26 | 48.40585 | 9.46236 | 32582 ft | 440 kts | 358° |
| 2026-04-26 18:26 | 48.43637 | 9.46236 | 32853 ft | 439 kts | 358° |
| 2026-04-26 18:26 | 48.46694 | 9.46238 | 33122 ft | 439 kts | 358° |
| 2026-04-26 18:27 | 48.49747 | 9.46238 | 33390 ft | 438 kts | 358° |
| 2026-04-26 18:27 | 48.52790 | 9.46239 | 33628 ft | 438 kts | 358° |
| 2026-04-26 18:27 | 48.55834 | 9.46225 | 33869 ft | 437 kts | 357° |
| 2026-04-26 18:27 | 48.58874 | 9.46192 | 34095 ft | 437 kts | 357° |
| 2026-04-26 18:28 | 48.61917 | 9.46158 | 34307 ft | 437 kts | 357° |
| 2026-04-26 18:28 | 48.64958 | 9.46121 | 34500 ft | 436 kts | 357° |
| 2026-04-26 18:28 | 48.67986 | 9.46084 | 34687 ft | 436 kts | 357° |
| 2026-04-26 18:28 | 48.71023 | 9.46040 | 34872 ft | 435 kts | 357° |
| 2026-04-26 18:29 | 48.74043 | 9.45948 | 35042 ft | 434 kts | 356° |
| 2026-04-26 18:29 | 48.77063 | 9.45801 | 35215 ft | 434 kts | 356° |
| 2026-04-26 18:29 | 48.80041 | 9.45653 | 35366 ft | 433 kts | 355° |
| 2026-04-26 18:29 | 48.83060 | 9.45503 | 35528 ft | 433 kts | 356° |
| 2026-04-26 18:30 | 48.86073 | 9.45355 | 35688 ft | 433 kts | 355° |
| 2026-04-26 18:30 | 48.89094 | 9.45201 | 35849 ft | 432 kts | 355° |
| 2026-04-26 18:30 | 48.92098 | 9.45045 | 35999 ft | 432 kts | 355° |
| 2026-04-26 18:30 | 48.95097 | 9.44892 | 36167 ft | 432 kts | 355° |
| 2026-04-26 18:31 | 48.98077 | 9.44743 | 36308 ft | 431 kts | 355° |
| 2026-04-26 18:31 | 49.01112 | 9.44592 | 36440 ft | 431 kts | 355° |
| 2026-04-26 18:31 | 49.04111 | 9.44441 | 36602 ft | 430 kts | 355° |
| 2026-04-26 18:31 | 49.07073 | 9.44291 | 36741 ft | 430 kts | 355° |
| 2026-04-26 18:32 | 49.10055 | 9.44137 | 36864 ft | 430 kts | 355° |
| 2026-04-26 18:32 | 49.13055 | 9.43983 | 36986 ft | 430 kts | 355° |
| 2026-04-26 18:32 | 49.16042 | 9.43827 | 37115 ft | 430 kts | 355° |
| 2026-04-26 18:32 | 49.19034 | 9.43671 | 37241 ft | 429 kts | 355° |
| 2026-04-26 18:33 | 49.24006 | 9.43417 | 37284 ft | 429 kts | 355° |
| 2026-04-26 18:33 | 49.30942 | 9.43063 | 37266 ft | 429 kts | 355° |
| 2026-04-26 18:34 | 49.36907 | 9.42753 | 37263 ft | 428 kts | 355° |
| 2026-04-26 18:34 | 49.41901 | 9.42497 | 37263 ft | 428 kts | 355° |
| 2026-04-26 18:35 | 49.47821 | 9.42193 | 37264 ft | 428 kts | 355° |
| 2026-04-26 18:35 | 49.53785 | 9.41886 | 37268 ft | 427 kts | 355° |
| 2026-04-26 18:36 | 49.59704 | 9.41579 | 37266 ft | 427 kts | 355° |
| 2026-04-26 18:36 | 49.65670 | 9.42033 | 37276 ft | 430 kts | 3° |
| 2026-04-26 18:37 | 49.71621 | 9.43007 | 37267 ft | 430 kts | 3° |
| 2026-04-26 18:37 | 49.77579 | 9.43969 | 37267 ft | 430 kts | 3° |
| 2026-04-26 18:38 | 49.83536 | 9.44906 | 37279 ft | 430 kts | 3° |
| 2026-04-26 18:38 | 49.89479 | 9.45858 | 37275 ft | 429 kts | 3° |
| 2026-04-26 18:39 | 49.95417 | 9.46816 | 37276 ft | 430 kts | 3° |
| 2026-04-26 18:39 | 50.01325 | 9.47770 | 37276 ft | 429 kts | 3° |
| 2026-04-26 18:40 | 50.07275 | 9.48729 | 37278 ft | 428 kts | 3° |
| 2026-04-26 18:40 | 50.13205 | 9.49768 | 37286 ft | 428 kts | 3° |
| 2026-04-26 18:41 | 50.19126 | 9.50822 | 37282 ft | 427 kts | 3° |
| 2026-04-26 18:41 | 50.25038 | 9.51867 | 37282 ft | 428 kts | 3° |
| 2026-04-26 18:42 | 50.30962 | 9.52918 | 37284 ft | 428 kts | 3° |
| 2026-04-26 18:42 | 50.36832 | 9.53961 | 37283 ft | 427 kts | 3° |
| 2026-04-26 18:43 | 50.42742 | 9.55012 | 37287 ft | 427 kts | 3° |
| 2026-04-26 18:43 | 50.48643 | 9.56067 | 37293 ft | 427 kts | 3° |
| 2026-04-26 18:44 | 50.54565 | 9.57128 | 37295 ft | 426 kts | 3° |
| 2026-04-26 18:44 | 50.60461 | 9.58182 | 37294 ft | 427 kts | 3° |
| 2026-04-26 18:45 | 50.66325 | 9.59241 | 37299 ft | 426 kts | 3° |
| 2026-04-26 18:45 | 50.72221 | 9.60308 | 37292 ft | 426 kts | 3° |
| 2026-04-26 18:46 | 50.78125 | 9.61375 | 37294 ft | 426 kts | 3° |
| 2026-04-26 18:46 | 50.84009 | 9.62450 | 37304 ft | 426 kts | 3° |
| 2026-04-26 18:47 | 50.89901 | 9.63519 | 37295 ft | 426 kts | 3° |
| 2026-04-26 18:47 | 50.95789 | 9.64579 | 37299 ft | 425 kts | 3° |
| 2026-04-26 18:48 | 51.01669 | 9.65658 | 37307 ft | 425 kts | 3° |
| 2026-04-26 18:48 | 51.07525 | 9.66739 | 37304 ft | 426 kts | 3° |
| 2026-04-26 18:49 | 51.13408 | 9.67814 | 37297 ft | 425 kts | 3° |
| 2026-04-26 18:49 | 51.19302 | 9.68899 | 37299 ft | 425 kts | 3° |
| 2026-04-26 18:50 | 51.25174 | 9.69899 | 37298 ft | 424 kts | 2° |
| 2026-04-26 18:50 | 51.31055 | 9.70819 | 37296 ft | 424 kts | 2° |
| 2026-04-26 18:51 | 51.36803 | 9.71750 | 37273 ft | 404 kts | 2° |
| 2026-04-26 18:51 | 51.42341 | 9.72648 | 37283 ft | 401 kts | 2° |
| 2026-04-26 18:52 | 51.47910 | 9.73560 | 37301 ft | 401 kts | 2° |
| 2026-04-26 18:52 | 51.53465 | 9.74606 | 37299 ft | 401 kts | 3° |
| 2026-04-26 18:53 | 51.58977 | 9.75656 | 37303 ft | 402 kts | 3° |
| 2026-04-26 18:53 | 51.64529 | 9.76787 | 37301 ft | 401 kts | 3° |
| 2026-04-26 18:54 | 51.70073 | 9.77929 | 37310 ft | 401 kts | 3° |
| 2026-04-26 18:54 | 51.75618 | 9.79057 | 37314 ft | 400 kts | 3° |
| 2026-04-26 18:55 | 51.81159 | 9.80188 | 37313 ft | 400 kts | 3° |
| 2026-04-26 18:55 | 51.86690 | 9.81324 | 37314 ft | 401 kts | 3° |
| 2026-04-26 18:56 | 51.92179 | 9.82455 | 37322 ft | 400 kts | 3° |
| 2026-04-26 18:56 | 51.97700 | 9.83598 | 37315 ft | 398 kts | 3° |
| 2026-04-26 18:57 | 52.00448 | 9.84168 | 36639 ft | 399 kts | 3° |
| 2026-04-26 18:57 | 52.02289 | 9.84545 | 35889 ft | 406 kts | 3° |
| 2026-04-26 18:57 | 52.06107 | 9.85324 | 34473 ft | 418 kts | 3° |
| 2026-04-26 18:57 | 52.08945 | 9.85913 | 33874 ft | 414 kts | 3° |
| 2026-04-26 18:58 | 52.11837 | 9.86527 | 32999 ft | 416 kts | 3° |
| 2026-04-26 18:58 | 52.14715 | 9.87148 | 32076 ft | 419 kts | 3° |
| 2026-04-26 18:58 | 52.17583 | 9.87750 | 31244 ft | 421 kts | 3° |
| 2026-04-26 18:58 | 52.20486 | 9.88338 | 30548 ft | 419 kts | 2° |
| 2026-04-26 18:59 | 52.23362 | 9.88922 | 29842 ft | 416 kts | 3° |
| 2026-04-26 18:59 | 52.26228 | 9.89518 | 29147 ft | 412 kts | 3° |
| 2026-04-26 18:59 | 52.29066 | 9.90128 | 28475 ft | 409 kts | 3° |
| 2026-04-26 18:59 | 52.31873 | 9.90714 | 27826 ft | 404 kts | 3° |
| 2026-04-26 19:00 | 52.34652 | 9.91283 | 27191 ft | 401 kts | 3° |
| 2026-04-26 19:00 | 52.37409 | 9.91855 | 26565 ft | 397 kts | 3° |
| 2026-04-26 19:00 | 52.40145 | 9.92428 | 25961 ft | 394 kts | 3° |
| 2026-04-26 19:00 | 52.42832 | 9.92991 | 25509 ft | 392 kts | 3° |
| 2026-04-26 19:01 | 52.45543 | 9.93562 | 25347 ft | 392 kts | 3° |
| 2026-04-26 19:01 | 52.48243 | 9.94128 | 25308 ft | 392 kts | 3° |
| 2026-04-26 19:01 | 52.50948 | 9.94700 | 25308 ft | 392 kts | 3° |
| 2026-04-26 19:01 | 52.53641 | 9.95272 | 25128 ft | 388 kts | 3° |
| 2026-04-26 19:02 | 52.56311 | 9.95841 | 24572 ft | 384 kts | 3° |
| 2026-04-26 19:02 | 52.58951 | 9.96401 | 23983 ft | 382 kts | 3° |
| 2026-04-26 19:02 | 52.61587 | 9.96958 | 23331 ft | 379 kts | 3° |
| 2026-04-26 19:02 | 52.63310 | 9.97323 | 22910 ft | 377 kts | 3° |
| 2026-04-26 19:03 | 52.66779 | 9.98060 | 22094 ft | 373 kts | 4° |
| 2026-04-26 19:03 | 52.69311 | 9.98603 | 21512 ft | 370 kts | 4° |
| 2026-04-26 19:03 | 52.71855 | 9.99143 | 20947 ft | 366 kts | 4° |
| 2026-04-26 19:03 | 52.74369 | 9.99678 | 20385 ft | 363 kts | 4° |
| 2026-04-26 19:04 | 52.76867 | 10.00211 | 19835 ft | 360 kts | 4° |
| 2026-04-26 19:04 | 52.79348 | 10.00740 | 19299 ft | 357 kts | 4° |
| 2026-04-26 19:04 | 52.81803 | 10.01263 | 18780 ft | 354 kts | 4° |
| 2026-04-26 19:04 | 52.84240 | 10.01787 | 18216 ft | 351 kts | 4° |
| 2026-04-26 19:05 | 52.89047 | 10.02872 | 17104 ft | 346 kts | 7° |
| 2026-04-26 19:05 | 52.91396 | 10.03678 | 16579 ft | 343 kts | 9° |
| 2026-04-26 19:05 | 52.93715 | 10.04545 | 16062 ft | 340 kts | 9° |
| 2026-04-26 19:06 | 52.96011 | 10.05392 | 15544 ft | 337 kts | 9° |
| 2026-04-26 19:06 | 52.98287 | 10.06212 | 15044 ft | 333 kts | 9° |
| 2026-04-26 19:06 | 53.00519 | 10.07013 | 14557 ft | 330 kts | 9° |
| 2026-04-26 19:06 | 53.02781 | 10.07828 | 14052 ft | 328 kts | 9° |
| 2026-04-26 19:07 | 53.04996 | 10.08629 | 13528 ft | 325 kts | 9° |
| 2026-04-26 19:07 | 53.07193 | 10.09425 | 13004 ft | 321 kts | 9° |
| 2026-04-26 19:07 | 53.09343 | 10.10203 | 12488 ft | 318 kts | 9° |
| 2026-04-26 19:07 | 53.11494 | 10.10981 | 11962 ft | 316 kts | 9° |
| 2026-04-26 19:08 | 53.13632 | 10.11756 | 11503 ft | 313 kts | 9° |
| 2026-04-26 19:08 | 53.15757 | 10.12527 | 11312 ft | 312 kts | 9° |
| 2026-04-26 19:08 | 53.17889 | 10.13301 | 11279 ft | 312 kts | 9° |
| 2026-04-26 19:08 | 53.20007 | 10.14072 | 11285 ft | 311 kts | 9° |
| 2026-04-26 19:09 | 53.22089 | 10.14833 | 11001 ft | 302 kts | 9° |
| 2026-04-26 19:09 | 53.24114 | 10.15573 | 10696 ft | 294 kts | 9° |
| 2026-04-26 19:09 | 53.26090 | 10.16295 | 10383 ft | 287 kts | 9° |
| 2026-04-26 19:09 | 53.28019 | 10.17000 | 10058 ft | 280 kts | 9° |
| 2026-04-26 19:10 | 53.29900 | 10.17688 | 9708 ft | 275 kts | 9° |
| 2026-04-26 19:10 | 53.31749 | 10.18365 | 9329 ft | 269 kts | 9° |
| 2026-04-26 19:10 | 53.33578 | 10.19035 | 8888 ft | 268 kts | 9° |
| 2026-04-26 19:10 | 53.35401 | 10.19701 | 8424 ft | 268 kts | 9° |
| 2026-04-26 19:11 | 53.37221 | 10.20367 | 7969 ft | 267 kts | 9° |
| 2026-04-26 19:11 | 53.39037 | 10.21032 | 7542 ft | 267 kts | 9° |
| 2026-04-26 19:11 | 53.40858 | 10.21701 | 7329 ft | 268 kts | 9° |
| 2026-04-26 19:11 | 53.42679 | 10.22372 | 7294 ft | 268 kts | 9° |
| 2026-04-26 19:12 | 53.44466 | 10.23032 | 7085 ft | 264 kts | 9° |
| 2026-04-26 19:12 | 53.46258 | 10.23693 | 6645 ft | 264 kts | 9° |
| 2026-04-26 19:12 | 53.48057 | 10.24360 | 6163 ft | 265 kts | 10° |
| 2026-04-26 19:12 | 53.49879 | 10.25037 | 5560 ft | 276 kts | 11° |
| 2026-04-26 19:13 | 53.51817 | 10.25755 | 5131 ft | 288 kts | 11° |
| 2026-04-26 19:13 | 53.53777 | 10.26483 | 5004 ft | 288 kts | 11° |
| 2026-04-26 19:13 | 53.55741 | 10.27213 | 4971 ft | 288 kts | 11° |
| 2026-04-26 19:13 | 53.57700 | 10.27941 | 4975 ft | 288 kts | 11° |
| 2026-04-26 19:14 | 53.59653 | 10.28667 | 4821 ft | 285 kts | 11° |
| 2026-04-26 19:14 | 53.61585 | 10.29385 | 4332 ft | 284 kts | 11° |
| 2026-04-26 19:14 | 53.63508 | 10.30101 | 3853 ft | 283 kts | 11° |
| 2026-04-26 19:14 | 53.64139 | 10.30335 | 3695 ft | 283 kts | 11° |
| 2026-04-26 19:15 | 53.67350 | 10.31520 | 2951 ft | 279 kts | 11° |
| 2026-04-26 19:15 | 53.69197 | 10.32206 | 2665 ft | 270 kts | 11° |
| 2026-04-26 19:15 | 53.71003 | 10.32649 | 2474 ft | 254 kts | 355° |
| 2026-04-26 19:15 | 53.72618 | 10.31840 | 2455 ft | 234 kts | 329° |
| 2026-04-26 19:16 | 53.73934 | 10.30416 | 2452 ft | 220 kts | 324° |
| 2026-04-26 19:16 | 53.75199 | 10.28927 | 2469 ft | 221 kts | 323° |
| 2026-04-26 19:16 | 53.76237 | 10.27074 | 2474 ft | 218 kts | 292° |
| 2026-04-26 19:16 | 53.76388 | 10.24583 | 2487 ft | 214 kts | 253° |
| 2026-04-26 19:17 | 53.75613 | 10.22651 | 2512 ft | 189 kts | 221° |
| 2026-04-26 19:17 | 53.74627 | 10.21377 | 2505 ft | 170 kts | 218° |
| 2026-04-26 19:17 | 53.73732 | 10.20105 | 2491 ft | 170 kts | 224° |
| 2026-04-26 19:17 | 53.72892 | 10.18688 | 2489 ft | 170 kts | 227° |
| 2026-04-26 19:18 | 53.72105 | 10.17205 | 2492 ft | 169 kts | 230° |
| 2026-04-26 19:18 | 53.71343 | 10.15683 | 2457 ft | 170 kts | 231° |
| 2026-04-26 19:18 | 53.70589 | 10.14156 | 2274 ft | 169 kts | 231° |
| 2026-04-26 19:18 | 53.69839 | 10.12631 | 2069 ft | 166 kts | 232° |
| 2026-04-26 19:19 | 53.69125 | 10.11181 | 1856 ft | 152 kts | 232° |
| 2026-04-26 19:19 | 53.68492 | 10.09892 | 1624 ft | 141 kts | 233° |
| 2026-04-26 19:19 | 53.67854 | 10.08596 | 1417 ft | 145 kts | 233° |
| 2026-04-26 19:19 | 53.67219 | 10.07306 | 1217 ft | 145 kts | 233° |
| 2026-04-26 19:20 | 53.66577 | 10.06002 | 1013 ft | 144 kts | 233° |
| 2026-04-26 19:20 | 53.66359 | 10.05560 | 948 ft | 144 kts | 233° |
| 2026-04-26 19:20 | 53.65295 | 10.03396 | 630 ft | 145 kts | 233° |
| 2026-04-26 19:20 | 53.64859 | 10.02519 | 472 ft | 143 kts | 232° |
| 2026-04-26 19:21 | 53.64234 | 10.01240 | 279 ft | 143 kts | 231° |
| 2026-04-26 19:21 | 53.63596 | 9.99962 | 92 ft | 142 kts | 230° |
| 2026-04-26 19:21 | 53.63003 | 9.98757 | 51 ft | 108 kts | 230° |
| 2026-04-26 19:21 | 53.62671 | 9.98088 | 47 ft | 60 kts | 230° |
| 2026-04-26 19:22 | 53.62507 | 9.97798 | 46 ft | 21 kts | 193° |
| 2026-04-26 19:22 | 53.62434 | 9.97937 | 51 ft | 5 kts | 77° |
| 2026-04-26 19:22 | 53.62436 | 9.97950 | 52 ft | 4 kts | 81° |
| 2026-04-26 19:22 | 53.62443 | 9.98036 | 52 ft | 10 kts | 82° |
| 2026-04-26 19:23 | 53.62455 | 9.98166 | 52 ft | 12 kts | 79° |
| 2026-04-26 19:23 | 53.62472 | 9.98314 | 52 ft | 14 kts | 78° |
| 2026-04-26 19:23 | 53.62493 | 9.98483 | 52 ft | 16 kts | 79° |
| 2026-04-26 19:23 | 53.62514 | 9.98672 | 52 ft | 17 kts | 79° |
| 2026-04-26 19:24 | 53.62537 | 9.98878 | 52 ft | 19 kts | 79° |
| 2026-04-26 19:24 | 53.62562 | 9.99099 | 52 ft | 20 kts | 79° |
| 2026-04-26 19:24 | 53.62614 | 9.99566 | 52 ft | 19 kts | 79° |
| 2026-04-26 19:25 | 53.62634 | 9.99743 | 52 ft | 12 kts | 79° |
| 2026-04-26 19:25 | 53.62659 | 9.99827 | 49 ft | 13 kts | 42° |
| 2026-04-26 19:25 | 53.62772 | 9.99933 | 50 ft | 15 kts | 28° |
| 2026-04-26 19:25 | 53.62853 | 10.00019 | 50 ft | 6 kts | 40° |
| 2026-04-26 19:26 | 53.62891 | 10.00070 | 54 ft | 8 kts | 34° |
| 2026-04-26 19:26 | 53.62942 | 10.00130 | 54 ft | 10 kts | 47° |
| 2026-04-26 19:26 | 53.62943 | 10.00209 | 54 ft | 2 kts | 109° |
| 2026-04-26 19:26 | 53.62935 | 10.00246 | 52 ft | 4 kts | 109° |
| 2026-04-26 19:27 | 53.62928 | 10.00282 | 54 ft | 0 kts | 107° |